Time;durP1;ratioP1;P1;durP2;ratioP2;P2;SDS_P1;SDS_P2;PMS_P1;PMS_P2;Temp;Humidity;BMP_temperature;BMP_pressure;BME280_temperature;BME280_humidity;BME280_pressure;Samples;Min_cycle;Max_cycle;Signal;HPM_P1;HPM_P2
2021/06/28 00:01:17;;;;;;;13.15;5.22;;;14.80;99.90;;;;;;5074586;28;20071;-74
2021/06/28 00:03:44;;;;;;;4.30;3.90;;;14.70;99.90;;;;;;5074397;28;20044;-75
2021/06/28 00:06:12;;;;;;;5.45;5.05;;;14.70;99.90;;;;;;5073301;28;20024;-75
2021/06/28 00:08:38;;;;;;;5.53;4.90;;;14.60;99.90;;;;;;5073224;28;20482;-75
2021/06/28 00:11:05;;;;;;;5.50;5.00;;;14.60;99.90;;;;;;5073220;28;20035;-75
2021/06/28 00:13:31;;;;;;;6.72;5.95;;;14.50;99.90;;;;;;5073035;28;20024;-74
2021/06/28 00:15:58;;;;;;;10.35;7.53;;;14.50;99.90;;;;;;5074509;28;20029;-75
2021/06/28 00:18:24;;;;;;;16.05;8.73;;;14.60;99.90;;;;;;5073084;28;20359;-75
2021/06/28 00:20:50;;;;;;;10.50;9.18;;;14.60;99.90;;;;;;5072821;28;20474;-75
2021/06/28 00:23:16;;;;;;;14.27;10.07;;;14.60;99.90;;;;;;5069686;28;20047;-75
2021/06/28 00:25:42;;;;;;;10.63;8.80;;;14.40;99.90;;;;;;5054198;28;20018;-75
2021/06/28 00:28:08;;;;;;;21.55;12.45;;;14.40;99.90;;;;;;5052865;28;20036;-75
2021/06/28 00:30:41;;;;;;;18.20;11.88;;;14.50;99.90;;;;;;5054121;28;20086;-75
2021/06/28 00:33:08;;;;;;;;;;;14.50;99.90;;;;;;5053237;28;20071;-75
2021/06/28 00:35:34;;;;;;;16.63;10.82;;;14.40;99.90;;;;;;5053981;28;19999;-75
2021/06/28 00:38:00;;;;;;;11.57;9.65;;;14.40;99.90;;;;;;5052653;28;20028;-74
2021/06/28 00:40:27;;;;;;;13.60;10.02;;;14.40;99.90;;;;;;5053707;28;20017;-76
2021/06/28 00:42:53;;;;;;;9.50;7.95;;;14.40;99.90;;;;;;5053817;28;20035;-75
2021/06/28 00:45:20;;;;;;;11.40;9.13;;;14.30;99.90;;;;;;5053919;28;20389;-76
2021/06/28 00:47:47;;;;;;;12.10;9.07;;;14.30;99.90;;;;;;5052394;28;20474;-75
2021/06/28 00:50:13;;;;;;;8.75;7.57;;;14.20;99.90;;;;;;5053588;28;20079;-75
2021/06/28 00:52:40;;;;;;;8.85;7.93;;;14.20;99.90;;;;;;5066097;28;20060;-75
2021/06/28 00:55:08;;;;;;;9.93;7.93;;;14.20;99.90;;;;;;5072373;28;20037;-75
2021/06/28 00:57:34;;;;;;;8.43;7.35;;;14.10;99.90;;;;;;5072921;28;20028;-74
2021/06/28 01:00:00;;;;;;;9.70;7.40;;;14.10;99.90;;;;;;5073609;28;20025;-74
2021/06/28 01:02:26;;;;;;;11.10;8.30;;;14.10;99.90;;;;;;5072065;28;20081;-74
2021/06/28 01:04:51;;;;;;;10.35;8.18;;;14.10;99.90;;;;;;5073435;28;20370;-75
2021/06/28 01:07:17;;;;;;;7.72;6.93;;;14.00;99.90;;;;;;5072013;28;20047;-74
2021/06/28 01:09:43;;;;;;;11.40;7.00;;;14.00;99.90;;;;;;5073347;28;20074;-74
2021/06/28 01:12:09;;;;;;;8.95;6.88;;;14.00;99.90;;;;;;5073593;28;20432;-75
2021/06/28 01:14:35;;;;;;;11.70;8.27;;;14.00;99.90;;;;;;5072002;28;20017;-75
2021/06/28 01:17:01;;;;;;;12.30;8.90;;;14.00;99.90;;;;;;5071956;28;20063;-74
2021/06/28 01:19:32;;;;;;;12.63;9.45;;;14.10;99.90;;;;;;5073143;28;20020;-74
2021/06/28 01:22:00;;;;;;;13.43;9.95;;;14.10;99.90;;;;;;5072867;28;20033;-74
2021/06/28 01:24:26;;;;;;;9.57;8.40;;;14.00;99.90;;;;;;5073158;28;20052;-74
2021/06/28 01:26:52;;;;;;;11.95;9.63;;;14.00;99.90;;;;;;5072668;28;20024;-74
2021/06/28 01:29:19;;;;;;;13.45;9.63;;;14.00;99.90;;;;;;5071790;28;20009;-75
2021/06/28 01:31:45;;;;;;;12.60;9.25;;;14.00;99.90;;;;;;5073147;28;20035;-74
2021/06/28 01:34:10;;;;;;;8.88;7.45;;;13.90;99.90;;;;;;5072229;28;20025;-75
2021/06/28 01:36:36;;;;;;;15.98;10.10;;;13.90;99.90;;;;;;5072932;28;20447;-74
2021/06/28 01:39:04;;;;;;;9.73;7.75;;;13.90;99.90;;;;;;5071702;28;20025;-74
2021/06/28 01:41:30;;;;;;;7.80;6.70;;;13.80;99.90;;;;;;5071581;28;20040;-74
2021/06/28 01:43:56;;;;;;;10.05;7.13;;;13.80;99.90;;;;;;5072991;28;20107;-75
2021/06/28 01:46:21;;;;;;;11.73;8.40;;;13.70;99.90;;;;;;5071585;28;20020;-74
2021/06/28 01:48:47;;;;;;;12.35;8.68;;;13.70;99.90;;;;;;5070966;28;20405;-75
2021/06/28 01:51:13;;;;;;;12.40;8.43;;;13.70;99.90;;;;;;5071424;28;20398;-74
2021/06/28 01:53:39;;;;;;;9.10;7.60;;;13.70;99.90;;;;;;5064061;28;20028;-75
2021/06/28 01:56:05;;;;;;;11.45;7.22;;;13.70;99.90;;;;;;5071603;28;20104;-74
2021/06/28 01:58:32;;;;;;;12.70;7.78;;;13.70;99.90;;;;;;5071426;28;20025;-75
2021/06/28 02:00:59;;;;;;;13.05;8.23;;;13.60;99.90;;;;;;5072378;28;20055;-75
2021/06/28 02:03:25;;;;;;;10.05;7.32;;;13.60;99.90;;;;;;5070862;28;20057;-74
2021/06/28 02:05:57;;;;;;;10.57;6.30;;;13.60;99.90;;;;;;5072723;28;20028;-74
2021/06/28 02:08:30;;;;;;;9.38;6.78;;;13.50;99.90;;;;;;5073649;28;20016;-74
2021/06/28 02:10:58;;;;;;;9.32;7.70;;;13.50;99.90;;;;;;5076822;28;20485;-74
2021/06/28 02:13:34;;;;;;;12.23;7.03;;;13.50;99.90;;;;;;5076976;28;20115;-74
2021/06/28 02:16:00;;;;;;;7.65;6.38;;;13.50;99.90;;;;;;5076708;28;20051;-74
2021/06/28 02:18:27;;;;;;;10.10;7.78;;;13.40;99.90;;;;;;5076637;28;20060;-74
2021/06/28 02:20:54;;;;;;;13.25;10.20;;;13.50;99.90;;;;;;5076393;28;20028;-75
2021/06/28 02:23:30;;;;;;;11.65;8.60;;;13.50;99.90;;;;;;5075994;28;20033;-74
2021/06/28 02:26:03;;;;;;;11.40;8.50;;;13.50;99.90;;;;;;5075258;28;20029;-74
2021/06/28 02:28:31;;;;;;;10.18;7.43;;;13.50;99.90;;;;;;5076321;28;20012;-74
2021/06/28 02:30:58;;;;;;;9.40;7.38;;;13.50;99.90;;;;;;5075449;28;20123;-74
2021/06/28 02:33:24;;;;;;;10.60;8.80;;;13.50;99.90;;;;;;5074938;28;20028;-74
2021/06/28 02:35:51;;;;;;;12.32;8.27;;;13.50;99.90;;;;;;5074705;28;20020;-75
2021/06/28 02:38:16;;;;;;;9.25;7.75;;;13.50;99.90;;;;;;5076188;28;20028;-74
2021/06/28 02:40:42;;;;;;;11.85;8.30;;;13.40;99.90;;;;;;5074362;28;20440;-75
2021/06/28 02:43:08;;;;;;;7.72;6.93;;;13.50;99.90;;;;;;5074809;28;20020;-74
2021/06/28 02:45:34;;;;;;;6.50;5.65;;;13.40;99.90;;;;;;5076050;28;20027;-75
2021/06/28 02:47:59;;;;;;;6.70;6.00;;;13.40;99.90;;;;;;5074579;28;20044;-74
2021/06/28 02:50:25;;;;;;;9.15;6.03;;;13.30;99.90;;;;;;5074184;28;20036;-75
2021/06/28 02:52:51;;;;;;;6.60;6.00;;;13.30;99.90;;;;;;5075810;28;20028;-74
2021/06/28 02:55:17;;;;;;;8.90;6.82;;;13.30;99.90;;;;;;5075959;28;20056;-75
2021/06/28 02:57:43;;;;;;;7.10;6.40;;;13.30;99.90;;;;;;5075708;28;20416;-74
2021/06/28 03:00:14;;;;;;;9.32;6.32;;;13.30;99.90;;;;;;5074508;28;20028;-75
2021/06/28 03:02:40;;;;;;;4.93;4.30;;;13.30;99.90;;;;;;5075612;28;20505;-74
2021/06/28 03:05:08;;;;;;;4.28;3.88;;;13.30;99.90;;;;;;5074399;28;20056;-74
2021/06/28 03:07:34;;;;;;;3.33;3.13;;;13.30;99.90;;;;;;5075958;28;20508;-74
2021/06/28 03:10:01;;;;;;;3.88;3.58;;;13.30;99.90;;;;;;5075604;28;20527;-75
2021/06/28 03:12:27;;;;;;;3.58;3.38;;;13.20;99.90;;;;;;5075477;28;20024;-74
2021/06/28 03:14:52;;;;;;;14.73;13.35;;;13.20;99.90;;;;;;5074231;28;20017;-75
2021/06/28 03:17:18;;;;;;;7.30;6.65;;;13.20;99.90;;;;;;5075321;28;20081;-75
2021/06/28 03:19:44;;;;;;;7.85;6.35;;;13.20;99.90;;;;;;5074403;28;20381;-75
2021/06/28 03:22:09;;;;;;;7.10;6.10;;;13.30;99.90;;;;;;5073250;28;20024;-75
2021/06/28 03:24:35;;;;;;;11.98;6.20;;;13.40;99.90;;;;;;5074106;28;20470;-75
2021/06/28 03:27:01;;;;;;;7.90;7.10;;;13.60;99.90;;;;;;5075292;28;20017;-74
2021/06/28 03:29:27;;;;;;;5.85;5.35;;;13.80;99.90;;;;;;5075240;28;20385;-75
2021/06/28 03:31:52;;;;;;;5.50;5.00;;;13.90;99.90;;;;;;5073840;28;20115;-74
2021/06/28 03:34:18;;;;;;;5.85;3.97;;;14.00;99.90;;;;;;5074979;28;20052;-76
2021/06/28 03:36:43;;;;;;;3.90;3.70;;;14.10;99.90;;;;;;5075052;28;20032;-75
2021/06/28 03:39:10;;;;;;;3.55;3.35;;;14.10;99.90;;;;;;5075150;28;20059;-75
2021/06/28 03:41:35;;;;;;;7.00;4.50;;;14.20;99.90;;;;;;5073486;28;20025;-75
2021/06/28 03:44:02;;;;;;;12.80;6.97;;;14.20;99.90;;;;;;5073695;28;20012;-75
2021/06/28 03:46:27;;;;;;;15.25;9.60;;;14.30;99.90;;;;;;5074871;28;20497;-75
2021/06/28 03:48:53;;;;;;;18.08;10.98;;;14.50;99.90;;;;;;5075170;28;20028;-75
2021/06/28 03:51:19;;;;;;;13.63;11.10;;;14.60;99.90;;;;;;5057136;28;20036;-74
2021/06/28 03:53:46;;;;;;;13.13;10.98;;;14.70;99.90;;;;;;5053447;28;20479;-75
2021/06/28 03:56:13;;;;;;;10.73;9.38;;;14.70;99.90;;;;;;5053505;28;20039;-74
2021/06/28 03:58:39;;;;;;;9.18;8.32;;;14.70;99.90;;;;;;5053358;28;20509;-75
2021/06/28 04:01:06;;;;;;;7.43;5.80;;;14.70;99.90;;;;;;5054378;28;20032;-75
2021/06/28 04:03:34;;;;;;;4.90;4.45;;;14.70;99.90;;;;;;5052964;28;20553;-75
2021/06/28 04:06:03;;;;;;;9.88;8.30;;;14.70;99.90;;;;;;5053000;28;20491;-75
2021/06/28 04:08:29;;;;;;;7.68;6.22;;;14.90;99.90;;;;;;5054488;28;20024;-75
2021/06/28 04:10:55;;;;;;;7.93;6.45;;;15.10;99.90;;;;;;5058548;28;20036;-77
2021/06/28 04:13:21;;;;;;;8.15;6.07;;;15.40;99.90;;;;;;5069179;28;20024;-75
2021/06/28 04:15:47;;;;;;;10.02;7.00;;;15.60;99.90;;;;;;5073086;28;20017;-75
2021/06/28 04:18:13;;;;;;;10.07;8.05;;;15.90;99.90;;;;;;5074298;28;20028;-75
2021/06/28 04:20:39;;;;;;;9.32;8.05;;;16.20;99.90;;;;;;5072893;28;20368;-76
2021/06/28 04:23:06;;;;;;;7.97;6.95;;;16.40;99.90;;;;;;5074147;28;20035;-75
2021/06/28 04:25:31;;;;;;;8.52;6.40;;;16.60;99.90;;;;;;5072928;28;20031;-75
2021/06/28 04:27:57;;;;;;;6.55;5.93;;;16.80;99.90;;;;;;5074033;28;20107;-75
2021/06/28 04:30:23;;;;;;;13.27;8.50;;;17.10;99.90;;;;;;5073688;28;20024;-75
2021/06/28 04:32:50;;;;;;;8.70;6.80;;;17.30;99.90;;;;;;5073019;28;20063;-75
2021/06/28 04:35:22;;;;;;;10.65;6.93;;;17.50;99.90;;;;;;5073865;28;20029;-75
2021/06/28 04:37:48;;;;;;;8.52;6.68;;;17.70;99.90;;;;;;5074000;28;20016;-76
2021/06/28 04:40:17;;;;;;;8.07;7.20;;;17.90;99.90;;;;;;5073876;28;20016;-76
2021/06/28 04:42:44;;;;;;;7.82;6.88;;;18.10;99.90;;;;;;5060467;28;20102;-75
2021/06/28 04:45:12;;;;;;;8.60;6.68;;;18.30;99.90;;;;;;5053801;28;20049;-75
2021/06/28 04:47:38;;;;;;;7.32;6.63;;;18.50;99.90;;;;;;5052343;28;20036;-75
2021/06/28 04:50:06;;;;;;;9.40;6.72;;;18.60;99.90;;;;;;5053889;28;20118;-77
2021/06/28 04:52:33;;;;;;;10.18;7.13;;;18.80;99.90;;;;;;5052313;28;20057;-75
2021/06/28 04:55:00;;;;;;;8.13;7.32;;;18.80;99.90;;;;;;5052298;28;20107;-76
2021/06/28 04:57:27;;;;;;;13.00;7.22;;;18.90;99.90;;;;;;5053623;28;20398;-75
2021/06/28 04:59:53;;;;;;;9.43;8.52;;;19.00;99.30;;;;;;5062679;28;20055;-77
2021/06/28 05:02:19;;;;;;;7.90;7.07;;;19.00;99.90;;;;;;5073473;28;20554;-76
2021/06/28 05:04:47;;;;;;;10.95;8.77;;;19.10;99.90;;;;;;5072166;28;20020;-76
2021/06/28 05:07:14;;;;;;;10.20;8.75;;;19.10;99.90;;;;;;5071992;28;20032;-75
2021/06/28 05:09:40;;;;;;;13.00;8.98;;;19.10;99.40;;;;;;5073324;28;20046;-75
2021/06/28 05:12:06;;;;;;;10.85;7.53;;;19.00;98.90;;;;;;5058448;28;20395;-75
2021/06/28 05:14:31;;;;;;;11.05;8.32;;;18.90;99.60;;;;;;5053094;28;20036;-76
2021/06/28 05:16:57;;;;;;;10.07;9.07;;;18.90;99.90;;;;;;5051660;28;20024;-75
2021/06/28 05:19:22;;;;;;;10.10;8.68;;;18.90;99.90;;;;;;5053243;28;20082;-76
2021/06/28 05:21:48;;;;;;;12.50;9.20;;;19.00;99.90;;;;;;5053040;28;20060;-76
2021/06/28 05:24:14;;;;;;;11.45;10.25;;;19.10;99.90;;;;;;5053269;28;20032;-76
2021/06/28 05:26:40;;;;;;;11.25;9.80;;;19.20;99.90;;;;;;5053431;28;20033;-75
2021/06/28 05:29:05;;;;;;;10.30;8.65;;;19.30;99.90;;;;;;5073041;28;20512;-77
2021/06/28 05:31:31;;;;;;;10.85;8.75;;;19.40;99.90;;;;;;5072906;28;20033;-75
2021/06/28 05:33:57;;;;;;;11.27;9.10;;;19.50;99.90;;;;;;5072736;28;20021;-76
2021/06/28 05:36:22;;;;;;;10.73;8.82;;;19.60;99.90;;;;;;5060525;28;20479;-76
2021/06/28 05:38:48;;;;;;;11.32;8.88;;;19.80;99.90;;;;;;5062474;28;20025;-76
2021/06/28 05:41:17;;;;;;;11.00;9.60;;;19.80;99.90;;;;;;5069890;28;20044;-76
2021/06/28 05:43:44;;;;;;;10.30;9.30;;;20.00;99.90;;;;;;5068960;28;20025;-76
2021/06/28 05:46:11;;;;;;;9.55;8.52;;;20.10;99.90;;;;;;5071595;28;20044;-76
2021/06/28 05:48:36;;;;;;;9.80;8.70;;;20.20;99.90;;;;;;5072907;28;20012;-76
2021/06/28 05:51:02;;;;;;;9.65;8.00;;;20.30;99.30;;;;;;5071256;28;20074;-76
2021/06/28 05:53:28;;;;;;;10.50;8.30;;;20.40;96.30;;;;;;5072718;28;20025;-75
2021/06/28 05:55:54;;;;;;;13.88;9.23;;;20.50;96.90;;;;;;5071561;28;20108;-76
2021/06/28 05:58:24;;;;;;;9.40;7.75;;;20.70;92.80;;;;;;5072735;28;20017;-76
2021/06/28 06:00:50;;;;;;;8.95;8.05;;;20.80;90.30;;;;;;5072748;28;20024;-76
2021/06/28 06:03:15;;;;;;;8.43;7.63;;;21.00;90.40;;;;;;5060495;28;20040;-76
2021/06/28 06:05:41;;;;;;;9.05;8.15;;;21.20;91.60;;;;;;5064484;28;20483;-76
2021/06/28 06:08:07;;;;;;;7.47;6.78;;;21.40;93.20;;;;;;5058297;28;20627;-76
2021/06/28 06:10:32;;;;;;;5.68;5.05;;;21.50;85.80;;;;;;5050941;28;20021;-77
2021/06/28 06:12:58;;;;;;;5.07;4.63;;;21.70;71.60;;;;;;5054979;28;20490;-74
2021/06/28 06:15:24;;;;;;;7.05;5.47;;;21.90;65.50;;;;;;5061433;28;20029;-75
2021/06/28 06:17:50;;;;;;;10.07;4.90;;;22.00;66.00;;;;;;5060680;28;20035;-75
2021/06/28 06:20:15;;;;;;;14.55;5.32;;;22.10;65.50;;;;;;5063094;28;20024;-75
2021/06/28 06:22:41;;;;;;;5.25;4.75;;;22.20;63.90;;;;;;5064806;28;20494;-75
2021/06/28 06:25:08;;;;;;;8.15;4.90;;;22.20;65.50;;;;;;5072571;28;20021;-75
2021/06/28 06:27:34;;;;;;;5.43;4.75;;;22.20;65.40;;;;;;5068269;28;20029;-76
2021/06/28 06:30:00;;;;;;;5.30;4.32;;;22.30;64.60;;;;;;5069487;28;20029;-77
2021/06/28 06:32:25;;;;;;;5.72;4.40;;;22.40;63.10;;;;;;5066957;28;20024;-77
2021/06/28 06:34:51;;;;;;;4.47;4.07;;;22.40;64.30;;;;;;5066346;28;20024;-77
2021/06/28 06:37:17;;;;;;;4.70;4.30;;;22.60;61.90;;;;;;5069340;28;20067;-76
2021/06/28 06:39:43;;;;;;;5.00;4.32;;;22.80;60.20;;;;;;5065894;28;20049;-76
2021/06/28 06:42:08;;;;;;;7.47;4.78;;;22.90;62.00;;;;;;5068055;28;20114;-77
2021/06/28 06:44:34;;;;;;;4.32;3.92;;;23.10;58.90;;;;;;5054675;28;20051;-77
2021/06/28 06:47:00;;;;;;;5.80;4.45;;;23.20;58.50;;;;;;5069816;28;20036;-76
2021/06/28 06:49:26;;;;;;;4.53;4.03;;;23.40;59.40;;;;;;5071049;28;20024;-77
2021/06/28 06:51:52;;;;;;;5.72;5.10;;;23.40;59.50;;;;;;5070151;28;20074;-76
2021/06/28 06:54:18;;;;;;;6.63;4.53;;;23.60;59.70;;;;;;5070507;28;20025;-76
2021/06/28 06:56:44;;;;;;;5.28;4.22;;;23.80;58.60;;;;;;5074892;28;20032;-76
2021/06/28 06:59:10;;;;;;;4.45;4.07;;;24.00;56.70;;;;;;5074842;28;20025;-77
2021/06/28 07:01:38;;;;;;;4.50;4.10;;;24.10;55.20;;;;;;5073518;28;20029;-76
2021/06/28 07:04:04;;;;;;;4.43;3.80;;;24.30;54.00;;;;;;5073661;28;20021;-77
2021/06/28 07:06:30;;;;;;;5.03;4.38;;;24.40;54.80;;;;;;5074979;28;20476;-76
2021/06/28 07:08:56;;;;;;;7.30;4.70;;;24.50;53.50;;;;;;5075510;28;20052;-77
2021/06/28 07:11:24;;;;;;;9.52;5.95;;;24.60;52.40;;;;;;5075403;28;20029;-76
2021/06/28 07:13:50;;;;;;;5.55;4.93;;;24.60;52.10;;;;;;5073598;28;20025;-76
2021/06/28 07:16:18;;;;;;;6.93;5.32;;;24.70;53.50;;;;;;5074307;28;20051;-76
2021/06/28 07:18:44;;;;;;;5.60;5.10;;;24.70;52.40;;;;;;5075225;28;20356;-76
2021/06/28 07:21:10;;;;;;;4.60;4.13;;;24.70;54.00;;;;;;5074062;28;20489;-76
2021/06/28 07:23:36;;;;;;;5.40;4.85;;;24.80;53.30;;;;;;5073277;28;20021;-77
2021/06/28 07:26:03;;;;;;;7.80;6.35;;;24.90;51.60;;;;;;5073276;28;20024;-77
2021/06/28 07:28:29;;;;;;;7.03;5.30;;;25.00;52.20;;;;;;5073650;28;20032;-77
2021/06/28 07:30:57;;;;;;;7.82;6.50;;;24.90;51.10;;;;;;5075333;28;20029;-77
2021/06/28 07:33:26;;;;;;;6.82;6.20;;;24.80;51.90;;;;;;5073981;28;20449;-77
2021/06/28 07:35:53;;;;;;;7.93;7.20;;;25.10;53.50;;;;;;5075187;28;20519;-77
2021/06/28 07:38:18;;;;;;;7.30;6.20;;;25.10;52.10;;;;;;5072259;28;20020;-76
2021/06/28 07:40:44;;;;;;;7.38;6.45;;;25.30;51.70;;;;;;5072819;28;20035;-76
2021/06/28 07:43:10;;;;;;;10.07;6.78;;;25.40;52.30;;;;;;5072864;28;20482;-77
2021/06/28 07:45:35;;;;;;;9.52;7.05;;;25.50;51.40;;;;;;5072786;28;20050;-76
2021/06/28 07:48:02;;;;;;;9.13;6.20;;;25.70;51.40;;;;;;5071420;28;20025;-77
2021/06/28 07:50:29;;;;;;;15.60;7.10;;;25.90;50.90;;;;;;5067196;28;20104;-77
2021/06/28 07:52:55;;;;;;;7.35;6.07;;;25.90;49.60;;;;;;5063900;28;20023;-76
2021/06/28 07:55:21;;;;;;;7.18;5.72;;;26.00;50.60;;;;;;5060881;28;20017;-77
2021/06/28 07:57:47;;;;;;;12.77;5.72;;;26.10;49.90;;;;;;5061672;28;20024;-77
2021/06/28 08:00:18;;;;;;;10.52;7.00;;;26.30;50.70;;;;;;5063445;28;20075;-77
2021/06/28 08:02:44;;;;;;;6.95;6.25;;;26.20;49.50;;;;;;5063835;28;20037;-76
2021/06/28 08:05:11;;;;;;;7.47;5.85;;;26.10;47.80;;;;;;5063564;28;20044;-77
2021/06/28 08:07:36;;;;;;;6.43;5.78;;;26.20;48.60;;;;;;5054774;28;20215;-76
2021/06/28 08:10:05;;;;;;;7.82;6.93;;;26.30;48.50;;;;;;5054477;28;20111;-77
2021/06/28 08:12:31;;;;;;;8.45;6.53;;;26.30;48.80;;;;;;5054208;28;20029;-77
2021/06/28 08:14:57;;;;;;;6.82;5.35;;;26.30;48.40;;;;;;5053121;28;20025;-76
2021/06/28 08:17:23;;;;;;;6.47;5.88;;;26.20;47.80;;;;;;5054134;28;20052;-77
2021/06/28 08:19:49;;;;;;;9.50;5.80;;;26.20;46.50;;;;;;5054316;28;20036;-77
2021/06/28 08:22:15;;;;;;;8.98;5.90;;;26.00;46.40;;;;;;5052699;28;20280;-77
2021/06/28 08:24:41;;;;;;;6.50;5.90;;;26.00;48.70;;;;;;5054249;28;20414;-77
2021/06/28 08:27:07;;;;;;;5.97;5.38;;;26.20;47.50;;;;;;5060729;28;20025;-77
2021/06/28 08:29:33;;;;;;;6.13;5.55;;;26.30;46.40;;;;;;5072794;28;20504;-77
2021/06/28 08:31:58;;;;;;;5.90;5.40;;;26.10;46.10;;;;;;5073619;28;20025;-77
2021/06/28 08:34:24;;;;;;;7.50;5.30;;;25.80;46.10;;;;;;5073773;28;20481;-78
2021/06/28 08:36:51;;;;;;;8.90;6.05;;;25.90;46.10;;;;;;5073731;28;20103;-77
2021/06/28 08:39:17;;;;;;;13.60;7.75;;;26.20;47.10;;;;;;5073983;28;20051;-76
2021/06/28 08:41:47;;;;;;;7.35;6.05;;;26.50;47.40;;;;;;5073620;28;20040;-76
2021/06/28 08:44:13;;;;;;;7.68;5.05;;;26.60;47.50;;;;;;5074238;28;20044;-77
2021/06/28 08:46:40;;;;;;;6.70;5.93;;;26.80;45.90;;;;;;5073659;28;20078;-77
2021/06/28 08:49:07;;;;;;;6.32;5.70;;;26.70;46.10;;;;;;5072452;28;20032;-77
2021/06/28 08:51:33;;;;;;;7.93;5.95;;;26.50;46.20;;;;;;5073403;28;20508;-76
2021/06/28 08:54:02;;;;;;;8.00;6.18;;;26.20;46.80;;;;;;5073625;28;20020;-77
2021/06/28 08:56:28;;;;;;;8.07;6.10;;;26.10;47.00;;;;;;5073594;28;20028;-76
2021/06/28 08:58:54;;;;;;;7.15;6.45;;;26.20;48.30;;;;;;5073029;28;20079;-77
2021/06/28 09:01:19;;;;;;;6.53;5.93;;;26.10;47.30;;;;;;5053435;28;20033;-77
2021/06/28 09:03:45;;;;;;;6.97;6.28;;;25.90;46.50;;;;;;5053536;28;20501;-77
2021/06/28 09:06:10;;;;;;;6.13;5.63;;;26.10;48.20;;;;;;5053298;28;20083;-76
2021/06/28 09:08:56;;;;;;;7.55;6.85;;;26.40;46.90;;;;;;5053340;28;20529;-77
2021/06/28 09:11:22;;;;;;;6.28;5.68;;;26.80;46.30;;;;;;5052108;28;20025;-77
2021/06/28 09:13:49;;;;;;;6.10;5.60;;;27.00;44.40;;;;;;5052023;28;20051;-77
2021/06/28 09:16:20;;;;;;;5.03;4.53;;;27.40;45.10;;;;;;5052322;28;20049;-77
2021/06/28 09:18:57;;;;;;;5.93;5.38;;;27.50;43.10;;;;;;5052740;28;20025;-77
2021/06/28 09:21:32;;;;;;;5.97;5.00;;;27.70;40.80;;;;;;5051620;28;20033;-76
2021/06/28 09:24:00;;;;;;;5.85;4.95;;;27.90;40.80;;;;;;5053217;28;20017;-77
2021/06/28 09:26:44;;;;;;;6.65;4.68;;;28.20;42.50;;;;;;5061243;28;20028;-77
2021/06/28 09:29:10;;;;;;;7.47;5.13;;;28.00;40.50;;;;;;5072947;28;20051;-76
2021/06/28 09:31:38;;;;;;;5.40;5.00;;;27.40;40.70;;;;;;5071382;28;20021;-77
2021/06/28 09:34:12;;;;;;;7.85;5.38;;;27.00;41.50;;;;;;5071690;28;20017;-76
2021/06/28 09:36:43;;;;;;;6.47;4.85;;;26.90;41.20;;;;;;5071620;28;20016;-77
2021/06/28 09:39:20;;;;;;;5.60;5.10;;;27.30;42.30;;;;;;5071666;28;20025;-77
2021/06/28 09:41:46;;;;;;;5.43;4.70;;;27.40;41.70;;;;;;5072715;28;20067;-76
2021/06/28 09:44:12;;;;;;;4.45;4.13;;;27.30;41.20;;;;;;5072915;28;20059;-77
2021/06/28 09:46:38;;;;;;;5.05;4.65;;;27.40;40.80;;;;;;5069403;28;20465;-77
2021/06/28 09:49:05;;;;;;;7.63;4.82;;;27.70;41.50;;;;;;5061387;28;20025;-77
2021/06/28 09:51:36;;;;;;;5.60;4.88;;;27.60;41.70;;;;;;5063763;28;20024;-77
2021/06/28 09:54:11;;;;;;;5.43;4.93;;;27.80;42.50;;;;;;5063643;28;20501;-77
2021/06/28 09:56:37;;;;;;;6.05;4.78;;;27.30;41.60;;;;;;5063699;28;20023;-77
2021/06/28 09:59:35;;;;;;;5.05;4.63;;;27.10;41.60;;;;;;5062793;28;20024;-77
2021/06/28 10:02:16;;;;;;;6.10;5.53;;;26.90;41.50;;;;;;5064318;28;20466;-76
2021/06/28 10:07:19;;;;;;;4.80;4.32;;;27.10;41.50;;;;;;5064710;28;20173;-77
2021/06/28 10:09:44;;;;;;;5.03;4.53;;;27.10;40.10;;;;;;5064202;28;20035;-77
2021/06/28 10:12:20;;;;;;;5.50;4.30;;;27.10;39.50;;;;;;5063594;28;20025;-76
2021/06/28 10:14:46;;;;;;;4.50;4.20;;;27.20;39.80;;;;;;5063197;28;20056;-77
2021/06/28 10:17:12;;;;;;;5.38;4.53;;;27.20;40.20;;;;;;5062923;28;20035;-77
2021/06/28 10:19:42;;;;;;;4.80;4.38;;;26.90;39.00;;;;;;5097206;28;20103;-77
2021/06/28 10:22:07;;;;;;;5.25;4.78;;;27.20;39.20;;;;;;5062926;28;20564;-77
2021/06/28 10:24:35;;;;;;;5.13;4.63;;;27.40;40.20;;;;;;5066345;28;20031;-77
2021/06/28 10:27:01;;;;;;;5.90;4.72;;;27.60;40.50;;;;;;5070250;28;20020;-76
2021/06/28 10:29:28;;;;;;;5.68;5.18;;;27.70;40.20;;;;;;5072990;28;20103;-76
2021/06/28 10:31:54;;;;;;;15.85;5.38;;;28.00;40.80;;;;;;5076212;28;20382;-76
2021/06/28 10:34:20;;;;;;;5.43;4.20;;;28.40;39.80;;;;;;5072246;28;20020;-76
2021/06/28 10:36:46;;;;;;;5.30;4.20;;;28.50;40.60;;;;;;5063139;28;20063;-76
2021/06/28 10:39:26;;;;;;;4.55;4.15;;;28.60;39.00;;;;;;5064418;28;20492;-77
2021/06/28 10:41:54;;;;;;;4.97;3.90;;;28.40;38.40;;;;;;5060390;28;20115;-77
2021/06/28 10:44:21;;;;;;;5.20;4.25;;;27.80;38.90;;;;;;5056081;28;20474;-77
2021/06/28 10:46:49;;;;;;;7.10;4.40;;;27.90;39.80;;;;;;5055761;28;20025;-77
2021/06/28 10:49:17;;;;;;;4.32;4.03;;;27.40;39.60;;;;;;5059067;28;20021;-77
2021/06/28 10:51:49;;;;;;;5.18;4.13;;;27.30;40.10;;;;;;5065900;28;20021;-76
2021/06/28 10:54:30;;;;;;;4.82;4.43;;;27.40;40.30;;;;;;5064060;28;20029;-77
2021/06/28 10:56:57;;;;;;;5.60;4.18;;;27.80;39.90;;;;;;5056672;28;20056;-77
2021/06/28 10:59:25;;;;;;;4.82;4.43;;;28.10;40.00;;;;;;5071473;28;20020;-77
2021/06/28 11:02:02;;;;;;;4.97;4.45;;;28.10;38.60;;;;;;5074420;28;20070;-77
2021/06/28 11:04:38;;;;;;;4.75;4.35;;;28.30;38.00;;;;;;5074120;28;20017;-77
2021/06/28 11:07:05;;;;;;;14.80;5.60;;;28.50;37.80;;;;;;5074178;28;20032;-76
2021/06/28 11:09:34;;;;;;;5.05;4.65;;;28.80;37.90;;;;;;5059475;28;20063;-77
2021/06/28 11:12:01;;;;;;;5.57;4.97;;;28.80;38.20;;;;;;5055486;28;20036;-76
2021/06/28 11:14:26;;;;;;;6.68;4.50;;;28.60;38.10;;;;;;5055493;28;20025;-76
2021/06/28 11:17:06;;;;;;;4.82;4.43;;;28.20;39.40;;;;;;5055432;28;20070;-77
2021/06/28 11:20:02;;;;;;;5.20;4.70;;;28.20;39.10;;;;;;5065222;28;20073;-77
2021/06/28 11:22:32;;;;;;;4.45;3.97;;;27.90;39.60;;;;;;5073726;28;20111;-77
2021/06/28 11:25:12;;;;;;;5.10;4.70;;;27.20;40.20;;;;;;5073748;28;20045;-77
2021/06/28 11:27:42;;;;;;;4.93;4.53;;;27.40;41.00;;;;;;5063468;28;20023;-77
2021/06/28 11:30:14;;;;;;;4.53;4.13;;;26.90;40.00;;;;;;5062134;28;20409;-77
2021/06/28 11:33:10;;;;;;;5.35;4.85;;;26.90;40.20;;;;;;5061415;28;20044;-77
2021/06/28 11:35:37;;;;;;;5.50;4.20;;;27.20;40.90;;;;;;5064484;28;20033;-76
2021/06/28 11:38:14;;;;;;;5.40;4.68;;;27.20;40.40;;;;;;5061381;28;20021;-76
2021/06/28 11:40:41;;;;;;;5.53;4.88;;;27.30;39.80;;;;;;5062205;28;20096;-77
2021/06/28 11:43:07;;;;;;;5.97;4.75;;;27.60;39.10;;;;;;5054687;28;20033;-76
2021/06/28 11:45:54;;;;;;;5.25;4.75;;;27.60;40.00;;;;;;5052606;28;20017;-77
2021/06/28 11:48:40;;;;;;;4.93;4.53;;;27.60;40.40;;;;;;5071697;28;20031;-76
2021/06/28 11:51:22;;;;;;;4.78;4.40;;;27.60;38.70;;;;;;5052556;28;20048;-77
2021/06/28 11:54:01;;;;;;;4.63;4.23;;;27.80;38.70;;;;;;5061709;28;20112;-77
2021/06/28 11:56:31;;;;;;;4.22;3.92;;;27.80;38.90;;;;;;5064483;28;20032;-76
2021/06/28 11:59:02;;;;;;;4.55;4.25;;;27.80;38.90;;;;;;5062905;28;20364;-77
2021/06/28 12:01:35;;;;;;;4.63;4.15;;;27.60;38.60;;;;;;5063979;28;20032;-77
2021/06/28 12:04:03;;;;;;;4.78;4.30;;;27.70;39.10;;;;;;5059024;28;20395;-76
2021/06/28 12:06:32;;;;;;;5.38;4.88;;;27.60;39.40;;;;;;5054505;28;20075;-76
2021/06/28 12:09:25;;;;;;;6.30;5.10;;;27.50;39.40;;;;;;5054554;28;20025;-77
2021/06/28 12:11:58;;;;;;;5.35;4.82;;;27.30;41.00;;;;;;5051995;28;20541;-77
2021/06/28 12:14:36;;;;;;;5.43;4.82;;;27.10;41.90;;;;;;5054603;28;20043;-77
2021/06/28 12:17:22;;;;;;;6.28;5.32;;;26.90;41.70;;;;;;5054539;28;20086;-76
2021/06/28 12:19:58;;;;;;;3.88;3.50;;;27.20;41.10;;;;;;5053133;28;20025;-76
2021/06/28 12:22:32;;;;;;;4.00;3.70;;;27.60;41.10;;;;;;5053041;28;20069;-76
2021/06/28 12:25:03;;;;;;;4.78;4.35;;;27.50;40.30;;;;;;5053116;28;20048;-76
2021/06/28 12:27:31;;;;;;;6.85;5.18;;;27.70;39.60;;;;;;5054222;28;20028;-76
2021/06/28 12:29:58;;;;;;;4.30;4.00;;;28.10;41.10;;;;;;5054177;28;20534;-76
2021/06/28 12:32:24;;;;;;;6.10;5.57;;;28.20;40.50;;;;;;5055258;28;20032;-76
2021/06/28 12:35:01;;;;;;;5.00;4.10;;;28.40;39.70;;;;;;5074075;28;20470;-77
2021/06/28 12:37:35;;;;;;;5.07;4.60;;;28.30;39.00;;;;;;5073777;28;20032;-76
2021/06/28 12:40:32;;;;;;;5.68;5.00;;;28.20;39.30;;;;;;5073904;28;20021;-76
2021/06/28 12:42:58;;;;;;;4.38;4.07;;;28.10;39.10;;;;;;5072362;28;20556;-76
2021/06/28 12:45:30;;;;;;;4.88;4.47;;;28.30;38.60;;;;;;5072681;28;20052;-76
2021/06/28 12:47:57;;;;;;;4.50;4.13;;;28.50;38.70;;;;;;5072600;28;20489;-76
2021/06/28 12:50:26;;;;;;;5.95;4.45;;;28.60;37.90;;;;;;5063699;28;20021;-76